Hovedside
METAR-TAF:

METAR-TAF

Lufthavner :

Kairouan, Tunisia

breddegrad: 35-40N, lengdegrad: 010-06E, høyde over havet: 60 m

Gjeldene værobservasjon

Denne rapporten ble laget for 1 time og 51 minutter siden, klokken 08:00 UTC
Vind 4 kt fra Sør-sørvest, skiftende mellom Sør-sørøst og Vest
Temperatur 11°C
Luftfuktighet 66%
Trykk 1016 hPa
Sikt 10 km eller mer
Få skyer i en høyde av 2300 ft

METAR: DTTK 130800Z 21004KT 160V260 9999 FEW023 11/05 Q1016

Tid: 10:51 (09:51 UTC)


TAF: fraværende

Værobservasjoner og værvarsel for over 4000 flyplasser (METAR- og TAF-rapporter).

Tilgjengelige stasjoner er representert av de røde og gule prikkene på kartet.

Hold musepekeren over prikken for å se navnet på stasjonen.

Klikk så for å se værobservasjoner og -varsler.

For å forandre kartet kan du klikke på den grønne knappen med svart kryss for å zoome inn, på den grønne knappen med strek for å zoome ut, eller på de grønne pilene for å se tilstøtende kart.


METAR-TAF: